sensor_id;sensor_type;location;lat;lon;timestamp;pressure;altitude;pressure_sealevel;temperature;humidity
4469;BME280;2247;42.666;23.292;2022-12-31T00:17:44;95378.34;;;11.86;60.80
4469;BME280;2247;42.666;23.292;2022-12-31T00:20:11;95378.59;;;11.84;60.98
4469;BME280;2247;42.666;23.292;2022-12-31T00:22:39;95380.50;;;11.89;61.70
4469;BME280;2247;42.666;23.292;2022-12-31T00:25:06;95384.44;;;11.86;61.07
4469;BME280;2247;42.666;23.292;2022-12-31T00:27:34;95385.00;;;11.88;60.70
4469;BME280;2247;42.666;23.292;2022-12-31T00:30:01;95386.84;;;11.93;60.01
4469;BME280;2247;42.666;23.292;2022-12-31T00:32:28;95388.66;;;11.87;60.57
4469;BME280;2247;42.666;23.292;2022-12-31T00:34:56;95394.75;;;11.88;61.24
4469;BME280;2247;42.666;23.292;2022-12-31T00:37:24;95396.59;;;11.87;61.23
4469;BME280;2247;42.666;23.292;2022-12-31T00:39:51;95403.47;;;11.88;61.04
4469;BME280;2247;42.666;23.292;2022-12-31T00:42:19;95405.59;;;11.91;60.45
4469;BME280;2247;42.666;23.292;2022-12-31T00:44:47;95395.25;;;11.84;60.75
4469;BME280;2247;42.666;23.292;2022-12-31T00:47:14;95403.78;;;11.97;59.42
4469;BME280;2247;42.666;23.292;2022-12-31T00:49:42;95408.06;;;12.03;58.33
4469;BME280;2247;42.666;23.292;2022-12-31T00:52:28;95390.50;;;11.81;59.43
4469;BME280;2247;42.666;23.292;2022-12-31T00:54:55;95414.28;;;12.23;57.02
4469;BME280;2247;42.666;23.292;2022-12-31T00:57:24;95408.53;;;12.37;56.74
4469;BME280;2247;42.666;23.292;2022-12-31T00:59:51;95408.13;;;12.13;57.06
4469;BME280;2247;42.666;23.292;2022-12-31T01:02:18;95404.63;;;12.02;58.35
4469;BME280;2247;42.666;23.292;2022-12-31T01:04:45;95415.56;;;12.21;56.86
4469;BME280;2247;42.666;23.292;2022-12-31T01:07:12;95424.31;;;12.21;57.50
4469;BME280;2247;42.666;23.292;2022-12-31T01:09:41;95418.66;;;12.08;56.53
4469;BME280;2247;42.666;23.292;2022-12-31T01:12:08;95415.63;;;11.89;57.09
4469;BME280;2247;42.666;23.292;2022-12-31T01:14:35;95427.69;;;11.80;58.81
4469;BME280;2247;42.666;23.292;2022-12-31T01:17:02;95427.75;;;11.58;58.99
4469;BME280;2247;42.666;23.292;2022-12-31T01:19:30;95420.94;;;11.35;60.59
4469;BME280;2247;42.666;23.292;2022-12-31T01:21:57;95436.31;;;11.43;61.63
4469;BME280;2247;42.666;23.292;2022-12-31T01:24:24;95434.03;;;11.52;60.63
4469;BME280;2247;42.666;23.292;2022-12-31T01:26:53;95433.13;;;11.41;59.58
4469;BME280;2247;42.666;23.292;2022-12-31T01:29:22;95441.63;;;11.22;59.62
4469;BME280;2247;42.666;23.292;2022-12-31T01:31:49;95434.56;;;11.27;59.45
4469;BME280;2247;42.666;23.292;2022-12-31T01:34:16;95441.59;;;11.17;60.16
4469;BME280;2247;42.666;23.292;2022-12-31T01:36:43;95430.28;;;11.21;60.32
4469;BME280;2247;42.666;23.292;2022-12-31T01:39:10;95437.22;;;11.27;61.15
4469;BME280;2247;42.666;23.292;2022-12-31T01:41:40;95441.13;;;11.20;62.17
4469;BME280;2247;42.666;23.292;2022-12-31T01:47:17;95442.03;;;10.87;62.77
4469;BME280;2247;42.666;23.292;2022-12-31T01:49:48;95445.63;;;10.97;62.98
4469;BME280;2247;42.666;23.292;2022-12-31T01:52:19;95443.81;;;11.03;62.72
4469;BME280;2247;42.666;23.292;2022-12-31T01:54:50;95438.84;;;11.06;62.69
4469;BME280;2247;42.666;23.292;2022-12-31T01:57:20;95448.94;;;11.15;61.75
4469;BME280;2247;42.666;23.292;2022-12-31T01:59:48;95439.31;;;11.25;60.87
4469;BME280;2247;42.666;23.292;2022-12-31T02:02:16;95464.66;;;11.26;61.51
4469;BME280;2247;42.666;23.292;2022-12-31T02:04:43;95440.91;;;11.26;61.19
4469;BME280;2247;42.666;23.292;2022-12-31T02:07:11;95446.28;;;11.36;60.85
4469;BME280;2247;42.666;23.292;2022-12-31T02:09:39;95447.91;;;11.42;60.19
4469;BME280;2247;42.666;23.292;2022-12-31T02:12:08;95455.75;;;11.32;62.02
4469;BME280;2247;42.666;23.292;2022-12-31T02:14:38;95432.44;;;11.24;61.70
4469;BME280;2247;42.666;23.292;2022-12-31T02:17:13;95444.59;;;11.25;62.29
4469;BME280;2247;42.666;23.292;2022-12-31T02:26:23;95451.94;;;11.23;62.01
4469;BME280;2247;42.666;23.292;2022-12-31T02:29:26;95456.38;;;11.18;62.82
4469;BME280;2247;42.666;23.292;2022-12-31T02:32:04;95455.88;;;11.21;61.96
4469;BME280;2247;42.666;23.292;2022-12-31T02:34:37;95458.81;;;11.24;62.56
4469;BME280;2247;42.666;23.292;2022-12-31T02:37:09;95454.22;;;11.15;62.22
4469;BME280;2247;42.666;23.292;2022-12-31T02:39:40;95472.03;;;11.24;61.37
4469;BME280;2247;42.666;23.292;2022-12-31T02:42:09;95467.78;;;11.23;62.04
4469;BME280;2247;42.666;23.292;2022-12-31T02:44:38;95474.34;;;11.21;62.15
4469;BME280;2247;42.666;23.292;2022-12-31T02:47:17;95470.84;;;11.15;62.45
4469;BME280;2247;42.666;23.292;2022-12-31T02:49:55;95470.25;;;11.08;61.88
4469;BME280;2247;42.666;23.292;2022-12-31T02:52:33;95470.75;;;11.05;62.36
4469;BME280;2247;42.666;23.292;2022-12-31T02:55:08;95471.84;;;11.09;61.95
4469;BME280;2247;42.666;23.292;2022-12-31T02:57:40;95461.53;;;10.86;63.86
4469;BME280;2247;42.666;23.292;2022-12-31T03:00:10;95477.97;;;10.93;63.41
4469;BME280;2247;42.666;23.292;2022-12-31T03:02:58;95466.94;;;10.96;63.01
4469;BME280;2247;42.666;23.292;2022-12-31T03:05:29;95471.66;;;10.72;62.67
4469;BME280;2247;42.666;23.292;2022-12-31T03:07:57;95463.81;;;10.77;62.20
4469;BME280;2247;42.666;23.292;2022-12-31T03:10:24;95463.66;;;10.84;61.14
4469;BME280;2247;42.666;23.292;2022-12-31T03:12:51;95459.47;;;10.88;61.86
4469;BME280;2247;42.666;23.292;2022-12-31T03:15:19;95453.94;;;10.89;61.40
4469;BME280;2247;42.666;23.292;2022-12-31T03:17:53;95445.56;;;10.71;60.07
4469;BME280;2247;42.666;23.292;2022-12-31T03:20:26;95451.38;;;10.73;61.36
4469;BME280;2247;42.666;23.292;2022-12-31T03:23:24;95447.16;;;10.72;61.64
4469;BME280;2247;42.666;23.292;2022-12-31T03:26:00;95450.50;;;10.89;61.04
4469;BME280;2247;42.666;23.292;2022-12-31T03:28:28;95458.97;;;10.91;61.61
4469;BME280;2247;42.666;23.292;2022-12-31T03:30:57;95453.38;;;10.87;61.53
4469;BME280;2247;42.666;23.292;2022-12-31T03:33:25;95457.81;;;10.82;62.10
4469;BME280;2247;42.666;23.292;2022-12-31T03:35:57;95452.16;;;10.73;62.65
4469;BME280;2247;42.666;23.292;2022-12-31T03:38:24;95457.75;;;10.77;62.60
4469;BME280;2247;42.666;23.292;2022-12-31T03:40:51;95450.66;;;10.77;61.70
4469;BME280;2247;42.666;23.292;2022-12-31T03:43:19;95448.00;;;10.77;62.38
4469;BME280;2247;42.666;23.292;2022-12-31T03:45:48;95463.56;;;10.79;62.02
4469;BME280;2247;42.666;23.292;2022-12-31T03:48:16;95462.66;;;10.90;60.89
4469;BME280;2247;42.666;23.292;2022-12-31T03:50:43;95465.97;;;10.80;62.72
4469;BME280;2247;42.666;23.292;2022-12-31T03:53:12;95481.44;;;10.72;61.90
4469;BME280;2247;42.666;23.292;2022-12-31T03:55:39;95472.91;;;10.64;62.86
4469;BME280;2247;42.666;23.292;2022-12-31T03:58:07;95450.31;;;10.52;62.48
4469;BME280;2247;42.666;23.292;2022-12-31T04:00:34;95464.72;;;10.66;62.45
4469;BME280;2247;42.666;23.292;2022-12-31T04:03:02;95472.63;;;10.66;62.47
4469;BME280;2247;42.666;23.292;2022-12-31T04:05:29;95478.22;;;10.70;61.62
4469;BME280;2247;42.666;23.292;2022-12-31T04:07:58;95475.59;;;10.70;61.04
4469;BME280;2247;42.666;23.292;2022-12-31T04:10:26;95474.72;;;10.64;62.14
4469;BME280;2247;42.666;23.292;2022-12-31T04:12:53;95470.53;;;10.46;60.80
4469;BME280;2247;42.666;23.292;2022-12-31T04:15:21;95485.88;;;10.49;61.84
4469;BME280;2247;42.666;23.292;2022-12-31T04:17:48;95478.59;;;10.40;62.31
4469;BME280;2247;42.666;23.292;2022-12-31T04:20:15;95478.50;;;10.51;62.36
4469;BME280;2247;42.666;23.292;2022-12-31T04:22:42;95486.44;;;10.35;63.58
4469;BME280;2247;42.666;23.292;2022-12-31T04:25:09;95484.84;;;10.34;62.73
4469;BME280;2247;42.666;23.292;2022-12-31T04:27:39;95487.25;;;10.35;63.32
4469;BME280;2247;42.666;23.292;2022-12-31T04:30:09;95487.88;;;10.25;63.25
4469;BME280;2247;42.666;23.292;2022-12-31T04:32:36;95488.50;;;10.16;63.40
4469;BME280;2247;42.666;23.292;2022-12-31T04:35:04;95493.13;;;10.09;63.61
4469;BME280;2247;42.666;23.292;2022-12-31T04:37:31;95502.34;;;10.23;63.41
4469;BME280;2247;42.666;23.292;2022-12-31T04:39:59;95499.22;;;10.26;62.79
4469;BME280;2247;42.666;23.292;2022-12-31T04:42:26;95505.13;;;10.16;63.24
4469;BME280;2247;42.666;23.292;2022-12-31T04:44:54;95494.19;;;10.08;64.06
4469;BME280;2247;42.666;23.292;2022-12-31T04:47:22;95493.84;;;10.04;62.88
4469;BME280;2247;42.666;23.292;2022-12-31T04:49:49;95504.81;;;10.30;62.57
4469;BME280;2247;42.666;23.292;2022-12-31T04:52:16;95500.81;;;10.27;63.14
4469;BME280;2247;42.666;23.292;2022-12-31T04:54:43;95508.78;;;10.32;62.72
4469;BME280;2247;42.666;23.292;2022-12-31T04:57:10;95477.19;;;10.15;62.85
4469;BME280;2247;42.666;23.292;2022-12-31T04:59:38;95506.72;;;10.34;62.91
4469;BME280;2247;42.666;23.292;2022-12-31T05:54:36;95571.88;;;8.62;68.29
4469;BME280;2247;42.666;23.292;2022-12-31T05:57:14;95545.94;;;8.42;67.79
4469;BME280;2247;42.666;23.292;2022-12-31T05:59:54;95552.31;;;8.58;67.88
4469;BME280;2247;42.666;23.292;2022-12-31T06:02:35;95555.75;;;8.47;68.07
4469;BME280;2247;42.666;23.292;2022-12-31T06:05:16;95577.22;;;8.67;67.64
4469;BME280;2247;42.666;23.292;2022-12-31T06:07:57;95567.41;;;8.39;67.55
4469;BME280;2247;42.666;23.292;2022-12-31T06:10:57;95577.31;;;8.37;68.64
4469;BME280;2247;42.666;23.292;2022-12-31T06:13:24;95586.38;;;8.41;68.51
4469;BME280;2247;42.666;23.292;2022-12-31T06:15:52;95581.56;;;8.38;68.46
4469;BME280;2247;42.666;23.292;2022-12-31T06:18:19;95580.31;;;8.41;68.24
4469;BME280;2247;42.666;23.292;2022-12-31T06:20:48;95571.88;;;8.62;68.22
4469;BME280;2247;42.666;23.292;2022-12-31T06:23:18;95588.75;;;9.13;68.52
4469;BME280;2247;42.666;23.292;2022-12-31T06:25:54;95578.00;;;9.54;67.44
4469;BME280;2247;42.666;23.292;2022-12-31T06:28:22;95588.69;;;9.93;67.12
4469;BME280;2247;42.666;23.292;2022-12-31T06:30:49;95593.88;;;10.33;65.97
4469;BME280;2247;42.666;23.292;2022-12-31T06:33:16;95594.44;;;10.68;65.90
4469;BME280;2247;42.666;23.292;2022-12-31T06:35:43;95599.84;;;10.95;64.92
4469;BME280;2247;42.666;23.292;2022-12-31T06:38:10;95601.78;;;11.21;64.30
4469;BME280;2247;42.666;23.292;2022-12-31T06:40:37;95599.16;;;11.43;62.56
4469;BME280;2247;42.666;23.292;2022-12-31T06:43:04;95598.28;;;11.59;62.54
4469;BME280;2247;42.666;23.292;2022-12-31T06:45:32;95594.03;;;11.75;61.05
4469;BME280;2247;42.666;23.292;2022-12-31T06:47:59;95608.53;;;11.99;62.00
4469;BME280;2247;42.666;23.292;2022-12-31T06:50:26;95608.44;;;12.16;61.39
4469;BME280;2247;42.666;23.292;2022-12-31T06:52:53;95608.84;;;12.30;60.20
4469;BME280;2247;42.666;23.292;2022-12-31T06:55:20;95617.66;;;12.45;59.22
4469;BME280;2247;42.666;23.292;2022-12-31T06:57:47;95628.09;;;12.57;59.89
4469;BME280;2247;42.666;23.292;2022-12-31T07:00:16;95598.13;;;12.46;60.11
4469;BME280;2247;42.666;23.292;2022-12-31T07:03:03;95635.19;;;12.83;59.63
4469;BME280;2247;42.666;23.292;2022-12-31T07:05:43;95615.41;;;12.96;59.66
4469;BME280;2247;42.666;23.292;2022-12-31T07:11:04;95620.13;;;13.26;57.46
4469;BME280;2247;42.666;23.292;2022-12-31T07:13:51;95636.69;;;13.48;56.94
4469;BME280;2247;42.666;23.292;2022-12-31T07:16:45;95638.81;;;13.56;57.14
4469;BME280;2247;42.666;23.292;2022-12-31T07:19:24;95639.91;;;13.65;56.27
4469;BME280;2247;42.666;23.292;2022-12-31T07:21:57;95628.28;;;13.66;55.28
4469;BME280;2247;42.666;23.292;2022-12-31T07:24:26;95635.19;;;13.77;55.02
4469;BME280;2247;42.666;23.292;2022-12-31T07:27:07;95639.47;;;13.89;53.45
4469;BME280;2247;42.666;23.292;2022-12-31T07:29:45;95637.41;;;14.01;52.98
4469;BME280;2247;42.666;23.292;2022-12-31T07:32:27;95638.50;;;14.10;53.18
4469;BME280;2247;42.666;23.292;2022-12-31T07:48:25;95648.13;;;14.46;54.82
4469;BME280;2247;42.666;23.292;2022-12-31T07:50:54;95651.56;;;14.47;53.51
4469;BME280;2247;42.666;23.292;2022-12-31T07:53:22;95651.03;;;14.55;51.95
4469;BME280;2247;42.666;23.292;2022-12-31T07:55:56;95674.66;;;14.62;51.69
4469;BME280;2247;42.666;23.292;2022-12-31T07:58:29;95658.22;;;14.54;50.23
4469;BME280;2247;42.666;23.292;2022-12-31T08:01:00;95661.41;;;14.51;50.08
4469;BME280;2247;42.666;23.292;2022-12-31T08:03:41;95661.66;;;14.45;50.72
4469;BME280;2247;42.666;23.292;2022-12-31T08:06:17;95655.81;;;14.43;51.27
4469;BME280;2247;42.666;23.292;2022-12-31T08:08:52;95662.47;;;14.55;50.40
4469;BME280;2247;42.666;23.292;2022-12-31T08:11:29;95661.94;;;14.58;49.75
4469;BME280;2247;42.666;23.292;2022-12-31T08:14:00;95657.16;;;14.61;52.18
4469;BME280;2247;42.666;23.292;2022-12-31T08:16:32;95652.41;;;14.73;52.32
4469;BME280;2247;42.666;23.292;2022-12-31T08:19:02;95651.84;;;14.76;51.15
4469;BME280;2247;42.666;23.292;2022-12-31T08:21:37;95658.78;;;14.72;50.06
4469;BME280;2247;42.666;23.292;2022-12-31T08:24:17;95656.13;;;14.72;50.04
4469;BME280;2247;42.666;23.292;2022-12-31T08:26:58;95656.09;;;14.77;50.42
4469;BME280;2247;42.666;23.292;2022-12-31T08:29:33;95663.25;;;14.66;51.16
4469;BME280;2247;42.666;23.292;2022-12-31T08:32:10;95660.88;;;14.65;50.59
4469;BME280;2247;42.666;23.292;2022-12-31T08:34:57;95661.41;;;14.67;50.35
4469;BME280;2247;42.666;23.292;2022-12-31T08:37:34;95664.06;;;14.72;50.65
4469;BME280;2247;42.666;23.292;2022-12-31T08:40:15;95658.78;;;14.72;50.62
4469;BME280;2247;42.666;23.292;2022-12-31T08:43:05;95664.06;;;14.77;50.68
4469;BME280;2247;42.666;23.292;2022-12-31T08:45:38;95649.72;;;14.63;51.40
4469;BME280;2247;42.666;23.292;2022-12-31T08:50:44;95652.38;;;14.83;52.64
4469;BME280;2247;42.666;23.292;2022-12-31T08:53:11;95654.25;;;14.87;51.05
4469;BME280;2247;42.666;23.292;2022-12-31T08:55:40;95650.78;;;14.97;50.37
4469;BME280;2247;42.666;23.292;2022-12-31T08:58:17;95650.78;;;14.82;49.45
4469;BME280;2247;42.666;23.292;2022-12-31T09:00:49;95657.69;;;14.88;49.75
4469;BME280;2247;42.666;23.292;2022-12-31T09:03:27;95635.66;;;14.82;49.30
4469;BME280;2247;42.666;23.292;2022-12-31T09:06:05;95642.84;;;14.82;50.35
4469;BME280;2247;42.666;23.292;2022-12-31T09:08:43;95643.09;;;14.90;49.06
4469;BME280;2247;42.666;23.292;2022-12-31T09:11:16;95644.94;;;14.75;50.01
4469;BME280;2247;42.666;23.292;2022-12-31T09:13:59;95649.47;;;14.64;51.45
4469;BME280;2247;42.666;23.292;2022-12-31T09:19:15;95638.06;;;14.74;52.41
4469;BME280;2247;42.666;23.292;2022-12-31T09:21:44;95643.91;;;14.71;52.96
4469;BME280;2247;42.666;23.292;2022-12-31T09:24:13;95645.47;;;14.82;51.88
4469;BME280;2247;42.666;23.292;2022-12-31T09:26:48;95636.47;;;14.93;50.02
4469;BME280;2247;42.666;23.292;2022-12-31T09:29:26;95631.44;;;14.86;51.49
4469;BME280;2247;42.666;23.292;2022-12-31T09:32:01;95630.91;;;14.69;51.39
4469;BME280;2247;42.666;23.292;2022-12-31T09:34:34;95629.31;;;14.58;52.49
4469;BME280;2247;42.666;23.292;2022-12-31T09:37:14;95617.59;;;14.39;53.11
4469;BME280;2247;42.666;23.292;2022-12-31T09:39:43;95618.38;;;14.34;54.06
4469;BME280;2247;42.666;23.292;2022-12-31T09:42:45;95597.69;;;14.36;51.57
4469;BME280;2247;42.666;23.292;2022-12-31T09:45:44;95600.34;;;14.36;52.39
4469;BME280;2247;42.666;23.292;2022-12-31T09:48:32;95607.25;;;14.37;53.97
4469;BME280;2247;42.666;23.292;2022-12-31T09:51:25;95594.78;;;14.28;51.07
4469;BME280;2247;42.666;23.292;2022-12-31T09:54:18;95589.72;;;14.16;53.55
4469;BME280;2247;42.666;23.292;2022-12-31T09:57:03;95590.25;;;14.23;53.74
4469;BME280;2247;42.666;23.292;2022-12-31T09:59:39;95592.88;;;14.18;54.21
4469;BME280;2247;42.666;23.292;2022-12-31T10:02:19;95581.22;;;14.19;53.25
4469;BME280;2247;42.666;23.292;2022-12-31T10:04:58;95587.09;;;14.31;52.18
4469;BME280;2247;42.666;23.292;2022-12-31T10:07:40;95583.66;;;14.31;50.56
4469;BME280;2247;42.666;23.292;2022-12-31T10:10:17;95587.09;;;14.31;53.50
4469;BME280;2247;42.666;23.292;2022-12-31T10:13:19;95577.00;;;14.28;51.84
4469;BME280;2247;42.666;23.292;2022-12-31T10:16:30;95574.59;;;14.27;50.62
4469;BME280;2247;42.666;23.292;2022-12-31T10:22:30;95576.19;;;14.17;54.58
4469;BME280;2247;42.666;23.292;2022-12-31T10:28:29;95550.44;;;13.93;53.25
4469;BME280;2247;42.666;23.292;2022-12-31T10:31:12;95557.84;;;13.75;52.09
4469;BME280;2247;42.666;23.292;2022-12-31T10:33:44;95537.44;;;13.76;54.51
4469;BME280;2247;42.666;23.292;2022-12-31T10:36:25;95550.47;;;14.03;52.63
4469;BME280;2247;42.666;23.292;2022-12-31T10:39:05;95546.22;;;14.07;53.60
4469;BME280;2247;42.666;23.292;2022-12-31T10:48:20;95551.53;;;14.12;52.30
4469;BME280;2247;42.666;23.292;2022-12-31T10:54:08;95551.03;;;14.45;50.27
4469;BME280;2247;42.666;23.292;2022-12-31T11:00:05;95538.28;;;14.12;53.49
4469;BME280;2247;42.666;23.292;2022-12-31T11:03:07;95544.91;;;14.14;53.50
4469;BME280;2247;42.666;23.292;2022-12-31T11:11:55;95542.78;;;14.32;51.10
4469;BME280;2247;42.666;23.292;2022-12-31T11:14:53;95542.28;;;14.35;52.06
4469;BME280;2247;42.666;23.292;2022-12-31T11:17:41;95530.09;;;14.39;54.65
4469;BME280;2247;42.666;23.292;2022-12-31T11:20:29;95514.97;;;14.49;52.12
4469;BME280;2247;42.666;23.292;2022-12-31T11:23:12;95505.13;;;14.60;54.66
4469;BME280;2247;42.666;23.292;2022-12-31T11:25:51;95521.03;;;14.80;55.08
4469;BME280;2247;42.666;23.292;2022-12-31T11:28:32;95526.03;;;14.97;53.99
4469;BME280;2247;42.666;23.292;2022-12-31T11:31:26;95508.56;;;14.76;51.72
4469;BME280;2247;42.666;23.292;2022-12-31T11:37:26;95525.03;;;14.68;52.88
4469;BME280;2247;42.666;23.292;2022-12-31T11:40:17;95515.19;;;14.83;51.90
4469;BME280;2247;42.666;23.292;2022-12-31T11:42:56;95512.28;;;14.85;50.32
4469;BME280;2247;42.666;23.292;2022-12-31T11:45:48;95502.44;;;14.80;52.46
4469;BME280;2247;42.666;23.292;2022-12-31T11:54:18;95498.03;;;15.35;52.45
4469;BME280;2247;42.666;23.292;2022-12-31T11:57:01;95500.97;;;15.33;52.18
4469;BME280;2247;42.666;23.292;2022-12-31T11:59:34;95493.53;;;15.30;51.79
4469;BME280;2247;42.666;23.292;2022-12-31T12:02:23;95490.91;;;15.25;52.03
4469;BME280;2247;42.666;23.292;2022-12-31T12:04:57;95501.50;;;15.30;53.75
4469;BME280;2247;42.666;23.292;2022-12-31T12:07:32;95510.19;;;15.46;51.89
4469;BME280;2247;42.666;23.292;2022-12-31T12:10:22;95516.00;;;15.58;53.97
4469;BME280;2247;42.666;23.292;2022-12-31T12:12:54;95508.00;;;15.63;54.11
4469;BME280;2247;42.666;23.292;2022-12-31T12:20:43;95511.75;;;16.01;51.01
4469;BME280;2247;42.666;23.292;2022-12-31T12:23:14;95509.06;;;16.06;51.99
4469;BME280;2247;42.666;23.292;2022-12-31T12:25:43;95507.41;;;16.15;49.45
4469;BME280;2247;42.666;23.292;2022-12-31T12:30:45;95502.22;;;15.95;52.12
4469;BME280;2247;42.666;23.292;2022-12-31T12:33:23;95497.94;;;15.99;54.02
4469;BME280;2247;42.666;23.292;2022-12-31T12:41:05;95498.97;;;16.03;53.59
4469;BME280;2247;42.666;23.292;2022-12-31T12:43:36;95503.72;;;16.06;53.44
4469;BME280;2247;42.666;23.292;2022-12-31T12:46:05;95516.97;;;16.17;55.11
4469;BME280;2247;42.666;23.292;2022-12-31T12:56:38;95507.63;;;16.19;55.93
4469;BME280;2247;42.666;23.292;2022-12-31T13:01:53;95529.75;;;16.14;52.01
4469;BME280;2247;42.666;23.292;2022-12-31T13:12:28;95530.09;;;15.98;48.81
4469;BME280;2247;42.666;23.292;2022-12-31T13:20:27;95521.50;;;15.72;52.83
4469;BME280;2247;42.666;23.292;2022-12-31T13:23:14;95546.47;;;15.76;52.83
4469;BME280;2247;42.666;23.292;2022-12-31T13:25:57;95533.75;;;15.68;52.17
4469;BME280;2247;42.666;23.292;2022-12-31T13:28:33;95540.66;;;15.64;50.72
4469;BME280;2247;42.666;23.292;2022-12-31T13:31:06;95535.66;;;15.62;52.92
4469;BME280;2247;42.666;23.292;2022-12-31T13:33:39;95532.22;;;15.52;52.83
4469;BME280;2247;42.666;23.292;2022-12-31T13:36:19;95542.03;;;15.51;52.80
4469;BME280;2247;42.666;23.292;2022-12-31T13:41:33;95536.41;;;15.63;55.63
4469;BME280;2247;42.666;23.292;2022-12-31T13:44:13;95537.78;;;15.60;55.68
4469;BME280;2247;42.666;23.292;2022-12-31T13:46:47;95534.81;;;15.67;57.10
4469;BME280;2247;42.666;23.292;2022-12-31T13:49:35;95553.34;;;15.82;57.73
4469;BME280;2247;42.666;23.292;2022-12-31T13:52:17;95555.19;;;15.87;58.05
4469;BME280;2247;42.666;23.292;2022-12-31T13:54:53;95544.31;;;15.83;58.44
4469;BME280;2247;42.666;23.292;2022-12-31T13:57:33;95550.94;;;15.86;58.86
4469;BME280;2247;42.666;23.292;2022-12-31T14:00:16;95530.00;;;15.74;59.09
4469;BME280;2247;42.666;23.292;2022-12-31T14:02:54;95563.41;;;15.85;58.87
4469;BME280;2247;42.666;23.292;2022-12-31T14:05:29;95546.19;;;15.77;58.99
4469;BME280;2247;42.666;23.292;2022-12-31T14:08:01;95563.97;;;15.82;57.60
4469;BME280;2247;42.666;23.292;2022-12-31T14:10:44;95558.38;;;15.84;56.38
4469;BME280;2247;42.666;23.292;2022-12-31T14:13:29;95528.97;;;15.65;54.34
4469;BME280;2247;42.666;23.292;2022-12-31T14:16:15;95560.34;;;15.68;54.33
4469;BME280;2247;42.666;23.292;2022-12-31T14:18:54;95554.19;;;15.72;52.42
4469;BME280;2247;42.666;23.292;2022-12-31T14:21:30;95544.41;;;15.63;52.44
4469;BME280;2247;42.666;23.292;2022-12-31T14:24:08;95549.22;;;15.61;51.88
4469;BME280;2247;42.666;23.292;2022-12-31T14:26:49;95532.50;;;15.55;53.98
4469;BME280;2247;42.666;23.292;2022-12-31T14:29:29;95539.34;;;15.66;51.15
4469;BME280;2247;42.666;23.292;2022-12-31T14:32:26;95538.81;;;15.69;51.34
4469;BME280;2247;42.666;23.292;2022-12-31T14:35:19;95554.75;;;15.69;51.08
4469;BME280;2247;42.666;23.292;2022-12-31T14:37:59;95538.88;;;15.54;52.97
4469;BME280;2247;42.666;23.292;2022-12-31T14:40:47;95544.50;;;15.32;51.41
4469;BME280;2247;42.666;23.292;2022-12-31T14:43:32;95522.06;;;14.94;52.78
4469;BME280;2247;42.666;23.292;2022-12-31T14:46:14;95550.97;;;15.06;52.78
4469;BME280;2247;42.666;23.292;2022-12-31T14:49:04;95544.34;;;14.98;55.89
4469;BME280;2247;42.666;23.292;2022-12-31T14:51:47;95534.25;;;15.01;55.83
4469;BME280;2247;42.666;23.292;2022-12-31T14:54:25;95539.28;;;15.02;54.25
4469;BME280;2247;42.666;23.292;2022-12-31T14:57:07;95558.09;;;15.16;54.91
4469;BME280;2247;42.666;23.292;2022-12-31T14:59:38;95539.28;;;15.02;55.44
4469;BME280;2247;42.666;23.292;2022-12-31T15:02:25;95552.28;;;15.09;54.15
4469;BME280;2247;42.666;23.292;2022-12-31T15:05:15;95546.22;;;14.93;55.08
4469;BME280;2247;42.666;23.292;2022-12-31T15:08:02;95547.78;;;14.94;55.59
4469;BME280;2247;42.666;23.292;2022-12-31T15:16:25;95537.78;;;14.50;56.71
4469;BME280;2247;42.666;23.292;2022-12-31T15:57:49;95562.44;;;14.36;52.90
4469;BME280;2247;42.666;23.292;2022-12-31T16:31:17;95631.59;;;14.19;55.60
4469;BME280;2247;42.666;23.292;2022-12-31T16:39:27;95664.47;;;14.13;55.69
4469;BME280;2247;42.666;23.292;2022-12-31T16:42:22;95659.41;;;14.06;56.29
4469;BME280;2247;42.666;23.292;2022-12-31T16:44:50;95656.22;;;14.04;56.58
4469;BME280;2247;42.666;23.292;2022-12-31T16:47:21;95667.34;;;14.01;56.68
4469;BME280;2247;42.666;23.292;2022-12-31T16:50:00;95660.75;;;14.09;54.15
4469;BME280;2247;42.666;23.292;2022-12-31T16:52:31;95659.16;;;14.18;51.30
4469;BME280;2247;42.666;23.292;2022-12-31T16:55:00;95671.03;;;13.95;54.85
4469;BME280;2247;42.666;23.292;2022-12-31T16:57:29;95676.28;;;13.80;55.50
4469;BME280;2247;42.666;23.292;2022-12-31T16:59:59;95673.88;;;13.84;52.23
4469;BME280;2247;42.666;23.292;2022-12-31T17:02:34;95679.44;;;13.77;53.53
4469;BME280;2247;42.666;23.292;2022-12-31T17:05:03;95677.47;;;13.57;55.90
4469;BME280;2247;42.666;23.292;2022-12-31T17:07:38;95675.13;;;13.61;57.37
4469;BME280;2247;42.666;23.292;2022-12-31T17:10:20;95687.56;;;13.60;57.22
4469;BME280;2247;42.666;23.292;2022-12-31T17:12:52;95680.94;;;13.58;56.80
4469;BME280;2247;42.666;23.292;2022-12-31T17:15:24;95699.22;;;13.59;56.58
4469;BME280;2247;42.666;23.292;2022-12-31T17:17:55;95675.28;;;13.44;56.75
4469;BME280;2247;42.666;23.292;2022-12-31T17:20:25;95690.69;;;13.52;56.16
4469;BME280;2247;42.666;23.292;2022-12-31T17:22:55;95692.81;;;13.50;56.56
4469;BME280;2247;42.666;23.292;2022-12-31T17:25:24;95702.59;;;13.50;57.03
4469;BME280;2247;42.666;23.292;2022-12-31T17:27:55;95700.22;;;13.48;56.72
4469;BME280;2247;42.666;23.292;2022-12-31T17:30:37;95672.56;;;13.29;55.76
4469;BME280;2247;42.666;23.292;2022-12-31T17:33:29;95711.81;;;13.42;56.61
4469;BME280;2247;42.666;23.292;2022-12-31T17:36:12;95712.31;;;13.34;58.07
4469;BME280;2247;42.666;23.292;2022-12-31T17:38:40;95700.00;;;13.18;55.31
4469;BME280;2247;42.666;23.292;2022-12-31T17:41:14;95705.25;;;12.81;57.30
4469;BME280;2247;42.666;23.292;2022-12-31T17:43:42;95699.31;;;13.00;57.63
4469;BME280;2247;42.666;23.292;2022-12-31T17:46:11;95705.28;;;13.13;57.29
4469;BME280;2247;42.666;23.292;2022-12-31T17:48:40;95704.00;;;13.20;56.20
4469;BME280;2247;42.666;23.292;2022-12-31T17:51:07;95701.88;;;13.22;56.15
4469;BME280;2247;42.666;23.292;2022-12-31T17:53:34;95702.47;;;13.29;55.75
4469;BME280;2247;42.666;23.292;2022-12-31T17:56:03;95701.78;;;13.44;56.10
4469;BME280;2247;42.666;23.292;2022-12-31T17:58:34;95700.72;;;13.45;57.40
4469;BME280;2247;42.666;23.292;2022-12-31T18:01:05;95704.66;;;13.43;56.45
4469;BME280;2247;42.666;23.292;2022-12-31T18:03:32;95707.81;;;13.34;54.61
4469;BME280;2247;42.666;23.292;2022-12-31T18:06:01;95702.56;;;13.39;55.95
4469;BME280;2247;42.666;23.292;2022-12-31T18:08:29;95704.66;;;13.43;56.24